createdAt,value
2023-04-06T00:00:15.611Z,0.23
2023-04-06T00:01:17.120Z,0.27
2023-04-06T00:02:18.740Z,0.28
2023-04-06T00:03:20.522Z,0.24
2023-04-06T00:04:22.115Z,0.22
2023-04-06T00:05:24.002Z,0.20
2023-04-06T00:06:25.478Z,0.15
2023-04-06T00:07:27.113Z,0.17
2023-04-06T00:08:28.698Z,0.17
2023-04-06T00:09:30.202Z,0.17
2023-04-06T00:10:31.788Z,0.15
2023-04-06T00:11:33.258Z,0.06
2023-04-06T00:12:34.791Z,0.04
2023-04-06T00:13:36.241Z,0.02
2023-04-06T00:14:37.695Z,-0.03
2023-04-06T00:15:39.247Z,-0.04
2023-04-06T00:16:40.722Z,-0.04
2023-04-06T00:17:42.305Z,-0.06
2023-04-06T00:18:43.953Z,-0.15
2023-04-06T00:19:45.397Z,-0.15
2023-04-06T00:20:46.865Z,-0.15
2023-04-06T00:21:48.445Z,-0.15
2023-04-06T00:22:49.995Z,-0.19
2023-04-06T00:23:51.568Z,-0.22
2023-04-06T00:24:53.007Z,-0.27
2023-04-06T00:25:54.464Z,-0.26
2023-04-06T00:26:56.260Z,-0.24
2023-04-06T00:27:57.788Z,-0.28
2023-04-06T00:28:59.972Z,-0.28
2023-04-06T00:30:01.464Z,-0.34
2023-04-06T00:31:02.937Z,-0.32
2023-04-06T00:32:04.491Z,-0.39
2023-04-06T00:33:06.291Z,-0.34
2023-04-06T00:34:07.847Z,-0.38
2023-04-06T00:35:09.730Z,-0.41
2023-04-06T00:36:11.433Z,-0.46
2023-04-06T00:37:13.186Z,-0.52
2023-04-06T00:38:16.061Z,-0.49
2023-04-06T00:39:19.118Z,-0.50
2023-04-06T00:40:22.421Z,-0.52
2023-04-06T00:41:23.958Z,-0.45
2023-04-06T00:42:28.954Z,-0.47
2023-04-06T00:43:30.512Z,-0.56
2023-04-06T00:44:32.887Z,-0.52
2023-04-06T00:45:34.506Z,-0.52
2023-04-06T00:46:36.101Z,-0.47
2023-04-06T00:47:37.849Z,-0.51
2023-04-06T00:48:40.133Z,-0.56
2023-04-06T00:49:41.623Z,-0.59
2023-04-06T00:50:43.341Z,-0.51
2023-04-06T00:51:44.902Z,-0.49
2023-04-06T00:52:46.720Z,-0.51
2023-04-06T00:53:48.213Z,-0.54
2023-04-06T00:54:51.536Z,-0.52
2023-04-06T00:55:53.018Z,-0.58
2023-04-06T00:56:54.713Z,-0.59
2023-04-06T00:57:59.430Z,-0.60
2023-04-06T00:59:01.405Z,-0.59
2023-04-06T01:00:03.909Z,-0.59
2023-04-06T01:01:06.117Z,-0.64
2023-04-06T01:02:08.902Z,-0.63
2023-04-06T01:03:10.586Z,-0.67
2023-04-06T01:04:12.133Z,-0.72
2023-04-06T01:05:13.677Z,-0.67
2023-04-06T01:06:15.409Z,-0.74
2023-04-06T01:07:16.860Z,-0.74
2023-04-06T01:08:18.295Z,-0.76
2023-04-06T01:09:19.844Z,-0.73
2023-04-06T01:10:29.360Z,-0.71
2023-04-06T01:11:30.940Z,-0.65
2023-04-06T01:12:32.474Z,-0.69
2023-04-06T01:13:34.013Z,-0.68
2023-04-06T01:14:35.647Z,-0.65
2023-04-06T01:15:39.994Z,-0.69
2023-04-06T01:16:42.735Z,-0.67
2023-04-06T01:17:44.394Z,-0.64
2023-04-06T01:18:45.911Z,-0.61
2023-04-06T01:19:50.159Z,-0.68
2023-04-06T01:20:51.685Z,-0.68
2023-04-06T01:21:54.312Z,-0.65
2023-04-06T01:22:55.802Z,-0.65
2023-04-06T01:23:57.273Z,-0.68
2023-04-06T01:24:58.822Z,-0.72
2023-04-06T01:26:00.331Z,-0.67
2023-04-06T01:27:02.312Z,-0.69
2023-04-06T01:28:04.028Z,-0.67
2023-04-06T01:29:06.004Z,-0.66
2023-04-06T01:30:07.858Z,-0.71
2023-04-06T01:31:10.455Z,-0.74
2023-04-06T01:32:11.970Z,-0.76
2023-04-06T01:33:13.526Z,-0.80
2023-04-06T01:34:15.536Z,-0.76
2023-04-06T01:35:17.319Z,-0.79
2023-04-06T01:36:19.738Z,-0.76
2023-04-06T01:37:21.330Z,-0.77
2023-04-06T01:38:22.854Z,-0.78
2023-04-06T01:39:24.424Z,-0.76
2023-04-06T01:40:25.937Z,-0.80
2023-04-06T01:41:27.412Z,-0.79
2023-04-06T01:42:29.079Z,-0.79
2023-04-06T01:43:30.778Z,-0.83
2023-04-06T01:44:32.329Z,-0.83
2023-04-06T01:45:33.800Z,-0.84
2023-04-06T01:46:35.515Z,-0.91
2023-04-06T01:47:37.091Z,-0.87
2023-04-06T01:48:38.612Z,-0.91
2023-04-06T01:49:40.436Z,-0.95
2023-04-06T01:50:42.131Z,-0.94
2023-04-06T01:51:43.583Z,-0.88
2023-04-06T01:52:45.570Z,-0.93
2023-04-06T01:53:47.036Z,-0.94
2023-04-06T01:54:48.488Z,-0.96
2023-04-06T01:55:50.323Z,-1.02
2023-04-06T01:56:53.471Z,-1.00
2023-04-06T01:57:54.990Z,-0.98
2023-04-06T01:58:57.205Z,-1.05
2023-04-06T01:59:58.688Z,-1.01
2023-04-06T02:01:00.278Z,-1.08
2023-04-06T02:02:01.869Z,-1.06
2023-04-06T02:03:03.591Z,-1.07
2023-04-06T02:04:05.250Z,-1.07
2023-04-06T02:05:07.115Z,-1.13
2023-04-06T02:06:08.677Z,-1.05
2023-04-06T02:07:10.314Z,-1.10
2023-04-06T02:08:11.771Z,-1.13
2023-04-06T02:09:13.275Z,-1.15
2023-04-06T02:10:15.084Z,-1.11
2023-04-06T02:11:16.571Z,-1.11
2023-04-06T02:12:18.063Z,-1.21
2023-04-06T02:13:19.562Z,-1.31
2023-04-06T02:14:21.093Z,-1.29
2023-04-06T02:15:22.579Z,-1.33
2023-04-06T02:16:24.122Z,-1.28
2023-04-06T02:17:25.671Z,-1.29
2023-04-06T02:18:27.178Z,-1.37
2023-04-06T02:19:28.902Z,-1.40
2023-04-06T02:20:30.757Z,-1.50
2023-04-06T02:21:32.228Z,-1.59
2023-04-06T02:22:33.684Z,-1.62
2023-04-06T02:23:35.255Z,-1.56
2023-04-06T02:24:37.476Z,-1.62
2023-04-06T02:25:39.078Z,-1.63
2023-04-06T02:26:40.738Z,-1.60
2023-04-06T02:27:42.199Z,-1.67
2023-04-06T02:28:43.641Z,-1.67
2023-04-06T02:29:45.115Z,-1.71
2023-04-06T02:30:47.546Z,-1.71
2023-04-06T02:31:49.068Z,-1.82
2023-04-06T02:32:50.741Z,-1.79
2023-04-06T02:33:52.240Z,-1.81
2023-04-06T02:34:53.800Z,-1.81
2023-04-06T02:35:55.388Z,-1.76
2023-04-06T02:36:56.895Z,-1.80
2023-04-06T02:37:58.410Z,-1.84
2023-04-06T02:38:59.879Z,-1.85
2023-04-06T02:40:01.431Z,-1.88
2023-04-06T02:41:02.950Z,-1.88
2023-04-06T02:42:04.559Z,-1.96
2023-04-06T02:43:06.233Z,-1.99
2023-04-06T02:44:09.733Z,-1.85
2023-04-06T02:45:11.412Z,-1.79
2023-04-06T02:46:12.917Z,-1.75
2023-04-06T02:47:14.447Z,-1.65
2023-04-06T02:48:16.177Z,-1.73
2023-04-06T02:49:17.685Z,-1.66
2023-04-06T02:50:19.184Z,-1.70
2023-04-06T02:51:21.097Z,-1.83
2023-04-06T02:52:22.605Z,-1.88
2023-04-06T02:53:24.142Z,-1.84
2023-04-06T02:54:25.824Z,-1.95
2023-04-06T02:55:27.469Z,-1.98
2023-04-06T02:56:28.945Z,-2.04
2023-04-06T02:57:30.401Z,-2.05
2023-04-06T02:58:31.891Z,-2.04
2023-04-06T02:59:33.428Z,-2.05
2023-04-06T03:00:34.987Z,-2.19
2023-04-06T03:01:37.108Z,-2.18
2023-04-06T03:02:38.675Z,-2.19
2023-04-06T03:03:40.321Z,-2.16
2023-04-06T03:04:41.913Z,-2.26
2023-04-06T03:05:43.387Z,-2.24
2023-04-06T03:06:44.838Z,-2.29
2023-04-06T03:07:46.332Z,-2.31
2023-04-06T03:08:48.222Z,-2.32
2023-04-06T03:09:49.715Z,-2.36
2023-04-06T03:10:51.569Z,-2.33
2023-04-06T03:11:53.110Z,-2.34
2023-04-06T03:12:54.571Z,-2.38
2023-04-06T03:13:56.146Z,-2.39
2023-04-06T03:14:57.650Z,-2.47
2023-04-06T03:15:59.165Z,-2.52
2023-04-06T03:17:01.316Z,-2.43
2023-04-06T03:18:02.851Z,-2.45
2023-04-06T03:19:04.356Z,-2.52
2023-04-06T03:20:06.253Z,-2.62
2023-04-06T03:21:07.725Z,-2.54
2023-04-06T03:22:09.227Z,-2.56
2023-04-06T03:23:10.712Z,-2.61
2023-04-06T03:24:12.213Z,-2.62
2023-04-06T03:25:13.774Z,-2.60
2023-04-06T03:26:15.613Z,-2.68
2023-04-06T03:27:17.148Z,-2.76
2023-04-06T03:28:18.688Z,-2.81
2023-04-06T03:29:20.317Z,-2.77
2023-04-06T03:30:21.810Z,-2.82
2023-04-06T03:31:23.413Z,-2.84
2023-04-06T03:32:24.897Z,-2.86
2023-04-06T03:33:29.312Z,-2.88
2023-04-06T03:34:31.021Z,-2.87
2023-04-06T03:35:32.510Z,-2.84
2023-04-06T03:36:36.095Z,-2.90
2023-04-06T03:37:37.673Z,-2.85
2023-04-06T03:38:40.832Z,-2.90
2023-04-06T03:39:42.963Z,-2.88
2023-04-06T03:40:44.443Z,-2.87
2023-04-06T03:41:45.922Z,-2.90
2023-04-06T03:42:47.374Z,-2.92
2023-04-06T03:43:48.929Z,-2.90
2023-04-06T03:44:50.470Z,-2.86
2023-04-06T03:45:51.981Z,-2.90
2023-04-06T03:46:53.592Z,-2.88
2023-04-06T03:47:55.230Z,-2.83
2023-04-06T03:48:56.840Z,-2.93
2023-04-06T03:49:58.268Z,-3.01
2023-04-06T03:50:59.739Z,-2.98
2023-04-06T03:52:02.526Z,-3.00
2023-04-06T03:53:04.104Z,-2.95
2023-04-06T03:54:05.760Z,-2.98
2023-04-06T03:55:08.093Z,-3.05
2023-04-06T03:56:09.680Z,-3.10
2023-04-06T03:57:11.239Z,-3.05
2023-04-06T03:58:12.689Z,-3.04
2023-04-06T03:59:14.185Z,-2.97
2023-04-06T04:00:16.292Z,-2.98
2023-04-06T04:01:19.182Z,-2.99
2023-04-06T04:02:20.857Z,-2.95
2023-04-06T04:03:24.489Z,-2.98
2023-04-06T04:04:26.083Z,-3.00
2023-04-06T04:05:27.806Z,-3.01
2023-04-06T04:06:29.349Z,-3.06
2023-04-06T04:07:31.507Z,-3.10
2023-04-06T04:08:32.930Z,-3.16
2023-04-06T04:09:34.390Z,-3.22
2023-04-06T04:10:35.929Z,-3.21
2023-04-06T04:11:37.469Z,-3.22
2023-04-06T04:12:38.921Z,-3.12
2023-04-06T04:13:40.379Z,-3.12
2023-04-06T04:14:41.855Z,-3.19
2023-04-06T04:15:43.437Z,-3.16
2023-04-06T04:16:44.960Z,-3.10
2023-04-06T04:17:47.931Z,-3.03
2023-04-06T04:18:49.783Z,-3.01
2023-04-06T04:19:51.254Z,-3.08
2023-04-06T04:20:53.164Z,-3.07
2023-04-06T04:21:54.674Z,-3.15
2023-04-06T04:22:56.266Z,-3.14
2023-04-06T04:23:57.841Z,-3.24
2023-04-06T04:24:59.331Z,-3.23
2023-04-06T04:26:00.843Z,-3.25
2023-04-06T04:27:02.359Z,-3.26
2023-04-06T04:28:03.954Z,-3.25
2023-04-06T04:29:06.013Z,-3.23
2023-04-06T04:30:07.792Z,-3.24
2023-04-06T04:31:09.300Z,-3.26
2023-04-06T04:32:10.888Z,-3.22
2023-04-06T04:33:12.459Z,-3.18
2023-04-06T04:34:13.979Z,-3.22
2023-04-06T04:35:15.524Z,-3.20
2023-04-06T04:36:16.969Z,-3.24
2023-04-06T04:37:18.465Z,-3.15
2023-04-06T04:38:19.971Z,-3.18
2023-04-06T04:39:21.475Z,-3.17
2023-04-06T04:40:22.977Z,-3.21
2023-04-06T04:41:24.471Z,-3.20
2023-04-06T04:42:26.052Z,-3.22
2023-04-06T04:43:27.600Z,-3.15
2023-04-06T04:44:29.040Z,-3.15
2023-04-06T04:45:30.720Z,-3.17
2023-04-06T04:46:32.241Z,-3.13
2023-04-06T04:47:33.718Z,-3.09
2023-04-06T04:48:35.556Z,-3.08
2023-04-06T04:49:37.119Z,-3.09
2023-04-06T04:50:38.740Z,-3.10
2023-04-06T04:51:40.226Z,-3.12
2023-04-06T04:52:41.679Z,-3.11
2023-04-06T04:53:43.155Z,-3.11
2023-04-06T04:54:44.852Z,-3.14
2023-04-06T04:55:46.317Z,-3.10
2023-04-06T04:56:47.762Z,-3.10
2023-04-06T04:57:49.245Z,-3.01
2023-04-06T04:58:51.125Z,-3.08
2023-04-06T04:59:52.618Z,-3.09
2023-04-06T05:00:54.103Z,-3.09
2023-04-06T05:01:56.048Z,-3.06
2023-04-06T05:02:57.663Z,-3.05
2023-04-06T05:03:59.267Z,-3.02
2023-04-06T05:05:00.709Z,-3.03
2023-04-06T05:06:02.803Z,-3.01
2023-04-06T05:07:08.694Z,-2.93
2023-04-06T05:08:10.479Z,-2.94
2023-04-06T05:09:11.995Z,-2.90
2023-04-06T05:10:13.612Z,-2.79
2023-04-06T05:11:15.173Z,-2.70
2023-04-06T05:12:16.771Z,-2.58
2023-04-06T05:13:18.571Z,-2.45
2023-04-06T05:14:20.082Z,-2.45
2023-04-06T05:15:21.568Z,-2.41
2023-04-06T05:16:23.363Z,-2.36
2023-04-06T05:17:25.089Z,-2.26
2023-04-06T05:18:27.166Z,-2.18
2023-04-06T05:19:28.808Z,-2.09
2023-04-06T05:20:30.489Z,-1.95
2023-04-06T05:21:32.767Z,-1.83
2023-04-06T05:22:34.261Z,-1.67
2023-04-06T05:23:36.014Z,-1.57
2023-04-06T05:24:37.661Z,-1.49
2023-04-06T05:25:39.271Z,-1.42
2023-04-06T05:26:40.819Z,-1.33
2023-04-06T05:27:42.306Z,-1.30
2023-04-06T05:28:45.329Z,-1.32
2023-04-06T05:29:46.806Z,-1.27
2023-04-06T05:30:48.359Z,-1.29
2023-04-06T05:31:50.032Z,-1.27
2023-04-06T05:32:51.727Z,-1.29
2023-04-06T05:33:53.661Z,-1.26
2023-04-06T05:34:55.164Z,-1.28
2023-04-06T05:35:56.708Z,-1.32
2023-04-06T05:36:58.186Z,-1.35
2023-04-06T05:37:59.628Z,-1.35
2023-04-06T05:39:01.194Z,-1.35
2023-04-06T05:40:03.672Z,-1.35
2023-04-06T05:41:05.196Z,-1.27
2023-04-06T05:42:07.505Z,-1.29
2023-04-06T05:43:09.264Z,-1.18
2023-04-06T05:44:10.905Z,-1.17
2023-04-06T05:45:17.621Z,-1.16
2023-04-06T05:46:19.539Z,-1.12
2023-04-06T05:47:21.172Z,-1.06
2023-04-06T05:48:22.693Z,-1.03
2023-04-06T05:49:24.166Z,-0.98
2023-04-06T05:50:25.881Z,-0.93
2023-04-06T05:51:28.193Z,-0.88
2023-04-06T05:52:29.733Z,-0.81
2023-04-06T05:53:31.220Z,-0.77
2023-04-06T05:54:32.690Z,-0.73
2023-04-06T05:55:34.192Z,-0.70
2023-04-06T05:56:35.681Z,-0.64
2023-04-06T05:57:37.192Z,-0.62
2023-04-06T05:58:38.784Z,-0.56
2023-04-06T05:59:40.350Z,-0.50
2023-04-06T06:00:43.457Z,-0.39
2023-04-06T06:01:45.023Z,-0.30
2023-04-06T06:02:46.606Z,-0.16
2023-04-06T06:03:48.160Z,-0.07
2023-04-06T06:04:49.689Z,0.06
2023-04-06T06:05:51.333Z,0.28
2023-04-06T06:06:52.780Z,0.40
2023-04-06T06:07:54.284Z,0.53
2023-04-06T06:08:56.556Z,0.74
2023-04-06T06:09:59.162Z,0.99
2023-04-06T06:11:01.154Z,1.22
2023-04-06T06:12:02.651Z,1.49
2023-04-06T06:13:04.101Z,1.70
2023-04-06T06:14:05.897Z,1.82
2023-04-06T06:15:08.133Z,1.98
2023-04-06T06:16:09.759Z,2.09
2023-04-06T06:17:11.258Z,2.12
2023-04-06T06:18:12.733Z,2.18
2023-04-06T06:19:14.293Z,2.12
2023-04-06T06:20:16.263Z,2.17
2023-04-06T06:21:18.139Z,2.24
2023-04-06T06:22:19.759Z,2.21
2023-04-06T06:23:21.228Z,2.23
2023-04-06T06:24:22.793Z,2.25
2023-04-06T06:25:25.049Z,2.34
2023-04-06T06:26:27.079Z,2.41
2023-04-06T06:27:28.537Z,2.46
2023-04-06T06:28:30.013Z,2.48
2023-04-06T06:29:31.549Z,2.70
2023-04-06T06:30:33.082Z,2.79
2023-04-06T06:31:34.632Z,2.74
2023-04-06T06:32:36.273Z,2.70
2023-04-06T06:33:37.819Z,2.76
2023-04-06T06:34:39.316Z,2.82
2023-04-06T06:35:40.785Z,2.97
2023-04-06T06:36:42.417Z,3.17
2023-04-06T06:37:44.172Z,3.31
2023-04-06T06:38:46.010Z,3.48
2023-04-06T06:39:47.486Z,3.78
2023-04-06T06:40:49.029Z,3.88
2023-04-06T06:41:50.500Z,3.94
2023-04-06T06:42:52.423Z,4.25
2023-04-06T06:43:54.069Z,4.57
2023-04-06T06:44:56.015Z,4.62
2023-04-06T06:45:57.645Z,4.84
2023-04-06T06:46:59.356Z,4.82
2023-04-06T06:48:00.952Z,5.11
2023-04-06T06:49:02.495Z,5.16
2023-04-06T06:50:04.274Z,5.08
2023-04-06T06:51:06.096Z,5.37
2023-04-06T06:52:07.652Z,5.40
2023-04-06T06:53:09.157Z,5.51
2023-04-06T06:54:10.944Z,5.53
2023-04-06T06:55:12.797Z,5.67
2023-04-06T06:56:14.293Z,5.70
2023-04-06T06:57:15.785Z,5.49
2023-04-06T06:58:23.314Z,5.53
2023-04-06T06:59:24.920Z,5.31
2023-04-06T07:00:26.493Z,5.04
2023-04-06T07:01:28.014Z,5.12
2023-04-06T07:02:29.614Z,5.07
2023-04-06T07:03:31.749Z,5.04
2023-04-06T07:04:33.213Z,5.00
2023-04-06T07:05:34.731Z,5.02
2023-04-06T07:06:36.815Z,4.99
2023-04-06T07:07:38.229Z,4.97
2023-04-06T07:08:39.821Z,4.82
2023-04-06T07:09:41.326Z,4.99
2023-04-06T07:10:43.016Z,4.91
2023-04-06T07:11:44.526Z,5.13
2023-04-06T07:12:46.981Z,5.18
2023-04-06T07:13:48.428Z,5.33
2023-04-06T07:14:49.888Z,5.58
2023-04-06T07:15:51.773Z,5.60
2023-04-06T07:16:53.425Z,5.72
2023-04-06T07:17:55.763Z,5.58
2023-04-06T07:18:57.414Z,5.62
2023-04-06T07:19:58.878Z,5.73
2023-04-06T07:21:00.319Z,5.69
2023-04-06T07:22:02.007Z,5.64
2023-04-06T07:23:03.753Z,5.62
2023-04-06T07:24:05.325Z,5.64
2023-04-06T07:25:07.155Z,5.61
2023-04-06T07:26:08.892Z,5.72
2023-04-06T07:27:10.515Z,5.59
2023-04-06T07:28:12.047Z,5.58
2023-04-06T07:29:13.706Z,5.64
2023-04-06T07:30:15.381Z,5.60
2023-04-06T07:31:16.838Z,5.58
2023-04-06T07:32:18.389Z,5.56
2023-04-06T07:33:19.913Z,5.71
2023-04-06T07:34:21.714Z,5.64
2023-04-06T07:35:27.785Z,5.73
2023-04-06T07:36:29.320Z,5.71
2023-04-06T07:37:30.852Z,5.67
2023-04-06T07:38:32.338Z,5.83
2023-04-06T07:39:33.826Z,5.71
2023-04-06T07:40:35.650Z,5.84
2023-04-06T07:41:37.517Z,5.96
2023-04-06T07:42:39.054Z,6.18
2023-04-06T07:43:40.587Z,6.23
2023-04-06T07:44:42.203Z,6.33
2023-04-06T07:45:43.726Z,6.47
2023-04-06T07:46:45.340Z,6.54
2023-04-06T07:47:47.127Z,6.55
2023-04-06T07:48:48.687Z,6.66
2023-04-06T07:49:50.229Z,6.76
2023-04-06T07:50:51.992Z,6.87
2023-04-06T07:51:53.439Z,7.09
2023-04-06T07:52:55.028Z,7.13
2023-04-06T07:53:56.628Z,7.17
2023-04-06T07:54:58.876Z,7.19
2023-04-06T07:56:00.610Z,7.34
2023-04-06T07:57:02.065Z,7.43
2023-04-06T07:58:03.533Z,7.45
2023-04-06T07:59:05.015Z,7.55
2023-04-06T08:00:07.249Z,7.47
2023-04-06T08:01:08.722Z,7.59
2023-04-06T08:02:10.373Z,7.58
2023-04-06T08:03:12.135Z,7.76
2023-04-06T08:04:13.971Z,7.77
2023-04-06T08:05:15.600Z,7.70
2023-04-06T08:06:17.811Z,7.89
2023-04-06T08:07:19.323Z,7.93
2023-04-06T08:08:22.143Z,7.81
2023-04-06T08:09:23.640Z,7.65
2023-04-06T08:10:25.169Z,7.71
2023-04-06T08:11:27.642Z,7.81
2023-04-06T08:12:29.158Z,7.78
2023-04-06T08:13:30.676Z,7.97
2023-04-06T08:14:32.224Z,7.99
2023-04-06T08:15:33.729Z,8.06
2023-04-06T08:16:35.242Z,8.07
2023-04-06T08:17:36.769Z,8.15
2023-04-06T08:18:38.258Z,8.40
2023-04-06T08:19:39.782Z,8.41
2023-04-06T08:20:41.597Z,8.22
2023-04-06T08:21:43.492Z,8.29
2023-04-06T08:22:45.187Z,8.18
2023-04-06T08:23:47.202Z,8.21
2023-04-06T08:24:48.726Z,8.23
2023-04-06T08:25:50.276Z,8.32
2023-04-06T08:26:52.324Z,8.59
2023-04-06T08:27:53.993Z,8.43
2023-04-06T08:28:55.490Z,8.52
2023-04-06T08:29:57.010Z,8.55
2023-04-06T08:30:58.518Z,8.74
2023-04-06T08:32:00.153Z,8.61
2023-04-06T08:33:01.744Z,8.44
2023-04-06T08:34:05.712Z,8.41
2023-04-06T08:35:07.823Z,8.50
2023-04-06T08:36:11.523Z,8.45
2023-04-06T08:37:13.019Z,8.47
2023-04-06T08:38:14.499Z,8.42
2023-04-06T08:39:15.926Z,8.42
2023-04-06T08:40:17.474Z,8.31
2023-04-06T08:41:19.182Z,8.68
2023-04-06T08:42:22.610Z,8.67
2023-04-06T08:43:25.714Z,8.86
2023-04-06T08:44:28.063Z,8.76
2023-04-06T08:45:29.827Z,8.91
2023-04-06T08:46:32.225Z,9.00
2023-04-06T08:47:35.381Z,8.98
2023-04-06T08:48:37.274Z,9.01
2023-04-06T08:49:42.019Z,9.01
2023-04-06T08:50:43.945Z,8.91
2023-04-06T08:51:45.668Z,9.13
2023-04-06T08:52:48.585Z,9.28
2023-04-06T08:53:50.965Z,9.27
2023-04-06T08:54:52.459Z,9.45
2023-04-06T08:55:54.523Z,9.35
2023-04-06T08:56:57.941Z,9.37
2023-04-06T08:58:00.548Z,9.31
2023-04-06T08:59:03.734Z,9.46
2023-04-06T09:00:07.466Z,9.65
2023-04-06T09:01:12.263Z,9.67
2023-04-06T09:02:20.120Z,9.62
2023-04-06T09:03:22.904Z,9.46
2023-04-06T09:04:24.514Z,9.63
2023-04-06T09:05:26.679Z,9.62
2023-04-06T09:06:28.589Z,9.66
2023-04-06T09:07:30.401Z,9.90
2023-04-06T09:08:31.861Z,9.76
2023-04-06T09:09:33.315Z,9.76
2023-04-06T09:10:35.265Z,9.80
2023-04-06T09:11:49.482Z,9.77
2023-04-06T09:12:51.414Z,9.96
2023-04-06T09:13:54.985Z,9.97
2023-04-06T09:14:57.564Z,10.18
2023-04-06T09:16:03.700Z,10.55
2023-04-06T09:17:07.377Z,10.07
2023-04-06T09:18:09.447Z,10.23
2023-04-06T09:19:11.395Z,10.08
2023-04-06T09:20:12.817Z,10.09
2023-04-06T09:21:18.125Z,9.55
2023-04-06T09:22:19.982Z,9.33
2023-04-06T09:23:21.549Z,9.59
2023-04-06T09:24:27.044Z,9.98
2023-04-06T09:25:28.762Z,10.24
2023-04-06T09:26:30.813Z,10.33
2023-04-06T09:27:34.058Z,10.02
2023-04-06T09:28:54.224Z,10.08
2023-04-06T09:30:14.498Z,10.47
2023-04-06T09:31:18.052Z,10.58
2023-04-06T09:32:20.095Z,10.77
2023-04-06T09:33:25.016Z,10.57
2023-04-06T09:34:26.470Z,10.85
2023-04-06T09:35:28.358Z,11.14
2023-04-06T09:36:32.991Z,10.98
2023-04-06T09:37:34.587Z,11.12
2023-04-06T09:38:38.264Z,10.99
2023-04-06T09:39:39.730Z,11.05
2023-04-06T09:41:00.671Z,11.13
2023-04-06T09:42:03.593Z,11.38
2023-04-06T09:43:07.957Z,11.63
2023-04-06T09:44:13.248Z,11.52
2023-04-06T09:45:15.204Z,11.31
2023-04-06T09:46:17.211Z,11.59
2023-04-06T09:47:20.809Z,11.59
2023-04-06T09:48:23.229Z,11.56
2023-04-06T09:49:27.968Z,11.41
2023-04-06T09:50:30.450Z,11.75
2023-04-06T09:51:39.812Z,11.42
2023-04-06T09:52:47.228Z,11.51
2023-04-06T09:53:53.051Z,11.13
2023-04-06T09:54:59.923Z,10.69
2023-04-06T09:56:04.090Z,10.83
2023-04-06T09:57:11.277Z,10.92
2023-04-06T09:58:20.196Z,11.65
2023-04-06T09:59:32.585Z,11.17
2023-04-06T10:00:44.072Z,11.42
2023-04-06T10:01:48.992Z,11.54
2023-04-06T10:02:59.126Z,11.80
2023-04-06T10:04:27.689Z,11.80
2023-04-06T10:05:55.575Z,11.29
2023-04-06T10:06:58.317Z,11.35
2023-04-06T10:08:06.277Z,11.19
2023-04-06T10:09:09.052Z,11.81
2023-04-06T10:10:12.605Z,11.99
2023-04-06T10:11:14.383Z,12.29
2023-04-06T10:12:16.280Z,12.40
2023-04-06T10:13:18.432Z,12.32
2023-04-06T10:14:20.262Z,12.22
2023-04-06T10:15:23.096Z,12.37
2023-04-06T10:16:26.636Z,12.33
2023-04-06T10:17:28.212Z,11.92
2023-04-06T10:18:30.122Z,11.93
2023-04-06T10:19:50.418Z,12.08
2023-04-06T10:21:01.996Z,12.06
2023-04-06T10:22:06.179Z,11.90
2023-04-06T10:23:10.913Z,12.53
2023-04-06T10:24:13.245Z,12.00
2023-04-06T10:25:14.840Z,12.28
2023-04-06T10:26:18.809Z,11.92
2023-04-06T10:27:29.595Z,12.01
2023-04-06T10:28:36.810Z,12.06
2023-04-06T10:29:49.825Z,12.09
2023-04-06T10:30:58.180Z,12.11
2023-04-06T10:31:59.722Z,12.35
2023-04-06T10:33:01.827Z,12.26
2023-04-06T10:34:03.952Z,12.40
2023-04-06T10:35:14.689Z,13.06
2023-04-06T10:36:23.550Z,12.25
2023-04-06T10:37:25.317Z,12.49
2023-04-06T10:38:41.317Z,12.73
2023-04-06T10:39:56.326Z,12.24
2023-04-06T10:41:05.220Z,12.13
2023-04-06T10:42:07.782Z,11.58
2023-04-06T10:43:10.291Z,11.21
2023-04-06T10:44:22.875Z,11.85
2023-04-06T10:45:26.766Z,12.07
2023-04-06T10:46:31.678Z,12.25
2023-04-06T10:47:41.066Z,12.64
2023-04-06T10:48:44.988Z,13.10
2023-04-06T10:49:46.617Z,13.21
2023-04-06T10:50:53.295Z,13.57
2023-04-06T10:51:56.387Z,13.99
2023-04-06T10:53:01.851Z,13.87
2023-04-06T10:54:04.922Z,13.89
2023-04-06T10:55:09.667Z,14.25
2023-04-06T10:56:12.974Z,14.03
2023-04-06T10:57:14.468Z,13.18
2023-04-06T10:58:16.014Z,12.52
2023-04-06T10:59:22.947Z,12.08
2023-04-06T11:00:26.077Z,11.69
2023-04-06T11:01:30.506Z,11.25
2023-04-06T11:02:33.066Z,10.93
2023-04-06T11:03:45.186Z,10.67
2023-04-06T11:04:55.398Z,10.48
2023-04-06T11:05:56.949Z,10.36
2023-04-06T11:06:58.937Z,10.16
2023-04-06T11:08:00.509Z,10.09
2023-04-06T11:09:02.062Z,10.05
2023-04-06T11:10:16.618Z,10.30
2023-04-06T11:11:21.676Z,10.92
2023-04-06T11:12:28.034Z,11.16
2023-04-06T11:13:40.390Z,11.64
2023-04-06T11:14:42.642Z,12.05
2023-04-06T11:15:44.285Z,12.20
2023-04-06T11:16:49.266Z,12.21
2023-04-06T11:17:50.847Z,12.80
2023-04-06T11:18:59.119Z,12.84
2023-04-06T11:20:00.911Z,12.88
2023-04-06T11:21:02.424Z,12.82
2023-04-06T11:22:08.572Z,13.12
2023-04-06T11:23:10.258Z,12.89
2023-04-06T11:24:16.108Z,13.32
2023-04-06T11:25:18.119Z,13.51
2023-04-06T11:26:19.823Z,13.77
2023-04-06T11:27:21.756Z,12.89
2023-04-06T11:28:23.198Z,13.01
2023-04-06T11:29:29.257Z,13.29
2023-04-06T11:30:31.565Z,13.71
2023-04-06T11:31:38.193Z,13.17
2023-04-06T11:32:46.816Z,12.53
2023-04-06T11:33:56.081Z,12.22
2023-04-06T11:34:59.098Z,12.24
2023-04-06T11:36:00.833Z,12.31
2023-04-06T11:37:10.530Z,12.56
2023-04-06T11:38:12.037Z,12.30
2023-04-06T11:39:14.858Z,12.67
2023-04-06T11:40:21.305Z,12.77
2023-04-06T11:41:26.283Z,12.93
2023-04-06T11:42:30.568Z,12.85
2023-04-06T11:43:32.647Z,13.08
2023-04-06T11:44:43.602Z,13.38
2023-04-06T11:45:45.328Z,13.82
2023-04-06T11:46:54.341Z,13.96
2023-04-06T11:47:58.560Z,13.74
2023-04-06T11:49:03.386Z,13.74
2023-04-06T11:50:14.459Z,13.55
2023-04-06T11:51:24.073Z,13.72
2023-04-06T11:52:28.216Z,13.51
2023-04-06T11:53:30.614Z,13.50
2023-04-06T11:54:38.103Z,14.32
2023-04-06T11:55:40.091Z,14.07
2023-04-06T11:56:41.714Z,14.18
2023-04-06T11:57:43.874Z,14.08
2023-04-06T11:58:45.352Z,14.29
2023-04-06T11:59:47.410Z,13.87
2023-04-06T12:00:48.999Z,13.81
2023-04-06T12:01:50.489Z,13.94
2023-04-06T12:02:52.388Z,13.65
2023-04-06T12:03:54.282Z,14.03
2023-04-06T12:04:56.009Z,14.08
2023-04-06T12:05:58.802Z,14.35
2023-04-06T12:07:01.418Z,13.96
2023-04-06T12:08:03.760Z,14.28
2023-04-06T12:09:05.534Z,13.68
2023-04-06T12:10:07.456Z,14.12
2023-04-06T12:11:08.896Z,14.02
2023-04-06T12:12:10.432Z,13.66
2023-04-06T12:13:11.892Z,14.30
2023-04-06T12:14:14.174Z,14.20
2023-04-06T12:15:15.668Z,13.71
2023-04-06T12:16:17.281Z,13.71
2023-04-06T12:17:19.858Z,14.13
2023-04-06T12:18:21.366Z,13.58
2023-04-06T12:19:26.477Z,13.92
2023-04-06T12:20:28.398Z,14.29
2023-04-06T12:21:31.939Z,14.34
2023-04-06T12:22:33.473Z,14.13
2023-04-06T12:23:34.934Z,14.06
2023-04-06T12:24:36.469Z,14.05
2023-04-06T12:25:40.706Z,13.66
2023-04-06T12:26:43.514Z,13.95
2023-04-06T12:27:45.075Z,14.48
2023-04-06T12:28:46.546Z,14.61
2023-04-06T12:29:48.581Z,14.39
2023-04-06T12:30:51.009Z,13.96
2023-04-06T12:31:53.892Z,13.76
2023-04-06T12:32:55.694Z,13.65
2023-04-06T12:33:57.176Z,13.60
2023-04-06T12:34:58.665Z,13.27
2023-04-06T12:36:00.248Z,13.33
2023-04-06T12:37:01.777Z,13.45
2023-04-06T12:38:03.427Z,13.49
2023-04-06T12:39:05.797Z,13.26
2023-04-06T12:40:08.050Z,13.32
2023-04-06T12:41:09.567Z,13.36
2023-04-06T12:42:11.724Z,13.69
2023-04-06T12:43:14.076Z,14.18
2023-04-06T12:44:15.593Z,13.83
2023-04-06T12:45:17.236Z,13.44
2023-04-06T12:46:18.808Z,13.17
2023-04-06T12:47:20.315Z,13.11
2023-04-06T12:48:22.230Z,12.92
2023-04-06T12:49:23.623Z,12.83
2023-04-06T12:50:25.387Z,12.80
2023-04-06T12:51:30.437Z,12.56
2023-04-06T12:52:32.946Z,12.52
2023-04-06T12:53:35.789Z,13.00
2023-04-06T12:54:37.225Z,13.16
2023-04-06T12:55:38.787Z,13.30
2023-04-06T12:56:40.543Z,13.29
2023-04-06T12:57:42.519Z,12.99
2023-04-06T12:58:44.243Z,12.78
2023-04-06T12:59:46.125Z,12.56
2023-04-06T13:00:48.410Z,12.31
2023-04-06T13:01:49.972Z,12.18
2023-04-06T13:02:51.643Z,11.99
2023-04-06T13:03:53.190Z,11.91
2023-04-06T13:04:54.661Z,11.62
2023-04-06T13:05:56.291Z,12.04
2023-04-06T13:06:57.798Z,12.14
2023-04-06T13:07:59.260Z,12.68
2023-04-06T13:09:01.326Z,13.01
2023-04-06T13:10:02.968Z,13.29
2023-04-06T13:11:04.601Z,13.56
2023-04-06T13:12:06.398Z,13.88
2023-04-06T13:13:07.964Z,14.08
2023-04-06T13:14:09.696Z,13.75
2023-04-06T13:15:11.586Z,13.82
2023-04-06T13:16:13.003Z,14.03
2023-04-06T13:17:14.508Z,14.24
2023-04-06T13:18:16.943Z,14.20
2023-04-06T13:19:19.206Z,14.28
2023-04-06T13:20:25.374Z,14.36
2023-04-06T13:21:27.286Z,14.39
2023-04-06T13:22:28.605Z,14.62
2023-04-06T13:23:30.298Z,14.71
2023-04-06T13:24:31.785Z,14.25
2023-04-06T13:25:33.714Z,14.22
2023-04-06T13:26:35.384Z,14.34
2023-04-06T13:27:36.971Z,14.39
2023-04-06T13:28:39.737Z,14.31
2023-04-06T13:29:41.423Z,13.85
2023-04-06T13:30:42.884Z,13.86
2023-04-06T13:31:44.432Z,13.66
2023-04-06T13:32:46.119Z,13.39